Time;durP1;ratioP1;P1;durP2;ratioP2;P2;SDS_P1;SDS_P2;PMS_P1;PMS_P2;Temp;Humidity;BMP_temperature;BMP_pressure;BME280_temperature;BME280_humidity;BME280_pressure;Samples;Min_cycle;Max_cycle;Signal;HPM_P1;HPM_P2
2023/07/16 00:00:39;;;;;;;;;;;;;;;20.77;93.24;99683.09;1086067;47;19958;-80
2023/07/16 00:01:40;;;;;;;;;;;;;;;20.78;92.43;99673.91;1084854;46;19992;-80
2023/07/16 00:02:43;;;;;;;;;;;;;;;20.72;92.91;99664.72;1084807;47;19959;-80
2023/07/16 00:03:44;;;;;;;;;;;;;;;20.73;92.93;99652.81;1084202;46;20550;-80
2023/07/16 00:04:47;;;;;;;;;;;;;;;20.76;92.29;99660.53;1085041;54;19954;-81
2023/07/16 00:05:49;;;;;;;;;;;;;;;20.85;92.02;99655.66;1085441;54;19953;-79
2023/07/16 00:06:52;;;;;;;;;;;;;;;20.92;91.67;99659.16;1084654;47;19953;-79
2023/07/16 00:07:56;;;;;;;;;;;;;;;20.89;91.33;99637.84;1084736;47;19997;-80
2023/07/16 00:08:59;;;;;;;;;;;;;;;20.99;91.18;99642.78;1084651;54;19946;-80
2023/07/16 00:10:00;;;;;;;;;;;;;;;21.04;90.89;99630.19;1084947;54;19950;-79
2023/07/16 00:11:07;;;;;;;;;;;;;;;21.08;90.98;99632.44;1085554;54;19958;-79
2023/07/16 00:12:09;;;;;;;;;;;;;;;21.06;91.41;99631.88;1085805;54;19950;-80
2023/07/16 00:13:12;;;;;;;;;;;;;;;21.09;90.56;99642.25;1085854;54;19951;-80
2023/07/16 00:14:13;;;;;;;;;;;;;;;21.07;91.28;99647.94;1087857;39;20525;-80
2023/07/16 00:15:16;;;;;;;;;;;;;;;21.02;90.16;99653.19;1086920;54;19954;-80
2023/07/16 00:16:17;;;;;;;;;;;;;;;20.97;89.35;99659.28;1086390;54;19943;-80
2023/07/16 00:17:20;;;;;;;;;;;;;;;20.93;89.00;99668.13;1086476;47;19950;-79
2023/07/16 00:18:21;;;;;;;;;;;;;;;20.90;88.17;99666.69;1086516;47;20505;-79
2023/07/16 00:19:24;;;;;;;;;;;;;;;20.81;88.13;99663.44;1086796;47;19970;-79
2023/07/16 00:20:25;;;;;;;;;;;;;;;20.73;88.12;99674.53;1086802;46;19939;-78
2023/07/16 00:21:29;;;;;;;;;;;;;;;20.68;87.86;99683.34;1086479;54;19949;-80
2023/07/16 00:22:29;;;;;;;;;;;;;;;20.72;88.13;99681.84;1086857;54;19969;-80
2023/07/16 00:23:33;;;;;;;;;;;;;;;20.84;87.54;99679.25;1086909;54;19950;-79
2023/07/16 00:24:36;;;;;;;;;;;;;;;20.81;87.10;99684.31;1086834;54;19950;-79
2023/07/16 00:25:37;;;;;;;;;;;;;;;20.80;86.90;99680.78;1086940;54;20705;-79
2023/07/16 00:26:40;;;;;;;;;;;;;;;20.85;86.73;99680.94;1086866;47;19945;-79
2023/07/16 00:27:41;;;;;;;;;;;;;;;20.88;86.63;99672.34;1086396;46;19973;-80
2023/07/16 00:28:45;;;;;;;;;;;;;;;20.76;86.41;99670.56;1087022;54;19973;-80
2023/07/16 00:29:46;;;;;;;;;;;;;;;20.78;85.76;99666.56;1086859;54;20746;-81
2023/07/16 00:30:49;;;;;;;;;;;;;;;20.87;85.50;99661.72;1086988;47;19938;-81
2023/07/16 00:31:50;;;;;;;;;;;;;;;20.83;85.54;99671.34;1086836;46;20608;-80
2023/07/16 00:32:53;;;;;;;;;;;;;;;20.88;84.81;99675.06;1086988;54;19949;-80
2023/07/16 00:33:54;;;;;;;;;;;;;;;20.86;85.33;99671.72;1086787;47;20030;-79
2023/07/16 00:34:58;;;;;;;;;;;;;;;20.82;85.24;99672.38;1087358;39;21044;-81
2023/07/16 00:35:58;;;;;;;;;;;;;;;20.85;85.69;99663.81;1087027;47;19938;-80
2023/07/16 00:37:03;;;;;;;;;;;;;;;20.81;85.42;99657.16;1086855;47;19939;-80
2023/07/16 00:38:03;;;;;;;;;;;;;;;20.81;85.88;99649.84;1086851;47;20865;-79
2023/07/16 00:39:09;;;;;;;;;;;;;;;20.89;85.14;99646.00;1086983;54;20038;-79
2023/07/16 00:40:11;;;;;;;;;;;;;;;20.92;84.98;99645.56;1086910;47;20646;-79
2023/07/16 00:41:15;;;;;;;;;;;;;;;20.97;84.76;99647.59;1086891;54;21004;-80
2023/07/16 00:42:15;;;;;;;;;;;;;;;20.90;85.10;99647.66;1086873;47;19964;-80
2023/07/16 00:43:19;;;;;;;;;;;;;;;20.93;84.74;99644.50;1086887;47;19972;-80
2023/07/16 00:44:20;;;;;;;;;;;;;;;20.92;85.06;99636.59;1086819;47;19946;-80
2023/07/16 00:45:23;;;;;;;;;;;;;;;20.86;84.81;99638.31;1086980;47;19954;-81
2023/07/16 00:46:24;;;;;;;;;;;;;;;20.79;84.41;99642.94;1086676;54;20028;-79
2023/07/16 00:47:25;;;;;;;;;;;;;;;20.78;84.86;99649.47;1086226;47;19947;-80
2023/07/16 00:48:28;;;;;;;;;;;;;;;20.77;84.63;99654.03;1088985;31;20871;-81
2023/07/16 00:49:29;;;;;;;;;;;;;;;20.81;84.82;99660.72;1086819;54;19942;-79
2023/07/16 00:50:34;;;;;;;;;;;;;;;20.80;84.65;99650.03;1087206;47;20546;-80
2023/07/16 00:51:34;;;;;;;;;;;;;;;20.78;85.39;99652.19;1086942;54;19942;-78
2023/07/16 00:52:38;;;;;;;;;;;;;;;20.82;85.04;99647.94;1086669;46;20890;-79
2023/07/16 00:53:39;;;;;;;;;;;;;;;20.75;85.51;99647.19;1087416;46;19966;-79
2023/07/16 00:54:45;;;;;;;;;;;;;;;20.77;85.37;99645.91;1086223;47;19973;-79
2023/07/16 00:55:46;;;;;;;;;;;;;;;20.78;85.27;99638.59;1086624;54;19939;-79
2023/07/16 00:56:51;;;;;;;;;;;;;;;20.71;85.80;99642.16;1086279;47;19993;-79
2023/07/16 00:57:52;;;;;;;;;;;;;;;20.67;85.78;99650.97;1086739;54;19943;-79
2023/07/16 00:58:56;;;;;;;;;;;;;;;20.64;86.51;99652.25;1086416;47;19980;-78
2023/07/16 00:59:58;;;;;;;;;;;;;;;20.62;87.20;99648.91;1086645;54;20041;-79
2023/07/16 01:01:01;;;;;;;;;;;;;;;20.72;86.34;99649.25;1087879;39;20515;-78
2023/07/16 01:02:02;;;;;;;;;;;;;;;20.66;86.12;99647.44;1086352;54;19977;-79
2023/07/16 01:03:06;;;;;;;;;;;;;;;20.62;86.13;99642.66;1086371;54;19942;-79
2023/07/16 01:04:07;;;;;;;;;;;;;;;20.55;86.11;99638.09;1086294;47;19947;-80
2023/07/16 01:05:11;;;;;;;;;;;;;;;20.56;86.57;99634.31;1085532;47;19973;-79
2023/07/16 01:06:14;;;;;;;;;;;;;;;20.49;85.96;99633.56;1086102;54;19949;-78
2023/07/16 01:07:16;;;;;;;;;;;;;;;20.56;86.04;99622.66;1086155;47;19949;-79
2023/07/16 01:08:23;;;;;;;;;;;;;;;20.63;85.47;99626.13;1086349;54;19943;-78
2023/07/16 01:09:24;;;;;;;;;;;;;;;20.45;86.29;99631.50;1085399;54;19951;-79
2023/07/16 01:10:30;;;;;;;;;;;;;;;20.26;86.67;99634.13;1085083;47;19950;-78
2023/07/16 01:11:32;;;;;;;;;;;;;;;20.34;86.26;99647.44;1086750;39;20378;-79
2023/07/16 01:12:36;;;;;;;;;;;;;;;20.29;87.15;99658.13;1085349;47;19950;-80
2023/07/16 01:13:37;;;;;;;;;;;;;;;20.35;87.10;99665.38;1085312;54;19975;-79
2023/07/16 01:14:42;;;;;;;;;;;;;;;20.28;87.23;99675.47;1086839;39;20730;-81
2023/07/16 01:15:42;;;;;;;;;;;;;;;20.21;87.31;99694.47;1085163;54;19995;-79
2023/07/16 01:16:46;;;;;;;;;;;;;;;20.20;87.43;99708.28;1086586;39;20377;-79
2023/07/16 01:17:47;;;;;;;;;;;;;;;20.22;87.41;99720.56;1085648;54;19967;-77
2023/07/16 01:18:50;;;;;;;;;;;;;;;20.23;87.37;99721.41;1085194;47;19951;-78
2023/07/16 01:19:52;;;;;;;;;;;;;;;20.26;86.66;99715.53;1085571;47;19959;-79
2023/07/16 01:20:55;;;;;;;;;;;;;;;20.22;86.35;99704.28;1084896;47;19951;-77
2023/07/16 01:22:00;;;;;;;;;;;;;;;20.24;85.39;99704.06;1085448;54;19950;-79
2023/07/16 01:23:30;;;;;;;;;;;;;;;20.24;85.35;99695.91;1084462;54;19954;-79
2023/07/16 01:24:43;;;;;;;;;;;;;;;20.24;84.57;99685.06;1085282;47;19951;-79
2023/07/16 01:25:59;;;;;;;;;;;;;;;20.20;84.19;99700.13;1086146;39;20503;-79
2023/07/16 01:27:11;;;;;;;;;;;;;;;20.20;83.75;99711.00;1084896;47;19972;-80
2023/07/16 01:28:24;;;;;;;;;;;;;;;20.20;83.47;99713.72;1084958;50;19995;-79
2023/07/16 01:29:32;;;;;;;;;;;;;;;20.20;83.15;99713.72;1085362;47;19950;-80
2023/07/16 01:30:35;;;;;;;;;;;;;;;20.28;82.91;99716.16;1085569;47;19943;-80
2023/07/16 01:31:36;;;;;;;;;;;;;;;20.23;82.71;99711.38;1084582;47;19950;-81
2023/07/16 01:32:40;;;;;;;;;;;;;;;20.10;81.56;99715.00;1085175;54;19991;-79
2023/07/16 01:33:42;;;;;;;;;;;;;;;20.15;81.64;99722.50;1085399;54;19974;-80
2023/07/16 01:34:47;;;;;;;;;;;;;;;20.18;81.68;99722.03;1086099;47;19948;-78
2023/07/16 01:35:48;;;;;;;;;;;;;;;20.08;81.79;99729.81;1085756;47;19947;-79
2023/07/16 01:36:49;;;;;;;;;;;;;;;20.07;81.09;99728.16;1085466;47;19947;-79
2023/07/16 01:37:53;;;;;;;;;;;;;;;20.06;81.25;99735.47;1085625;54;20663;-79
2023/07/16 01:38:54;;;;;;;;;;;;;;;20.05;81.35;99741.94;1086110;54;20561;-79
2023/07/16 01:39:57;;;;;;;;;;;;;;;20.01;81.24;99743.41;1086011;47;19953;-81
2023/07/16 01:40:58;;;;;;;;;;;;;;;20.05;80.31;99741.94;1086153;54;19951;-79
2023/07/16 01:42:02;;;;;;;;;;;;;;;20.00;78.99;99736.31;1086047;47;19958;-81
2023/07/16 01:43:03;;;;;;;;;;;;;;;19.95;78.37;99741.53;1086819;39;20617;-79
2023/07/16 01:44:06;;;;;;;;;;;;;;;19.82;76.74;99736.16;1086467;54;19951;-80
2023/07/16 01:45:10;;;;;;;;;;;;;;;19.97;76.49;99728.59;1086862;54;19942;-80
2023/07/16 01:46:13;;;;;;;;;;;;;;;20.03;75.63;99716.06;1086534;47;20033;-80
2023/07/16 01:47:30;;;;;;;;;;;;;;;19.95;75.03;99728.84;1086802;47;19979;-80
2023/07/16 01:48:35;;;;;;;;;;;;;;;19.95;74.99;99730.69;1086169;47;19951;-80
2023/07/16 01:49:36;;;;;;;;;;;;;;;19.85;74.09;99738.41;1086404;47;19939;-79
2023/07/16 01:50:39;;;;;;;;;;;;;;;19.83;73.72;99748.66;1086838;31;20690;-78
2023/07/16 01:51:40;;;;;;;;;;;;;;;19.83;73.87;99743.25;1087442;39;20462;-79
2023/07/16 01:52:43;;;;;;;;;;;;;;;19.78;73.75;99752.84;1086511;47;19939;-79
2023/07/16 01:53:44;;;;;;;;;;;;;;;19.84;74.48;99750.34;1089310;39;20620;-80
2023/07/16 01:54:47;;;;;;;;;;;;;;;19.78;73.77;99743.88;1086658;47;19968;-79
2023/07/16 01:55:48;;;;;;;;;;;;;;;19.76;73.15;99738.66;1086831;47;19947;-81
2023/07/16 01:56:51;;;;;;;;;;;;;;;19.78;73.41;99735.75;1086898;47;19938;-79
2023/07/16 01:57:52;;;;;;;;;;;;;;;19.81;72.89;99727.16;1086767;47;19970;-79
2023/07/16 01:58:56;;;;;;;;;;;;;;;19.86;72.81;99721.97;1086794;54;20576;-79
2023/07/16 01:59:57;;;;;;;;;;;;;;;19.75;72.40;99722.59;1086736;47;19958;-80
2023/07/16 02:01:03;;;;;;;;;;;;;;;19.79;72.47;99727.38;1086719;54;19943;-79
2023/07/16 02:02:04;;;;;;;;;;;;;;;19.74;71.92;99729.06;1087143;39;20477;-81
2023/07/16 02:03:05;;;;;;;;;;;;;;;19.68;71.90;99733.47;1086870;47;19993;-80
2023/07/16 02:04:09;;;;;;;;;;;;;;;19.82;71.95;99728.84;1086874;47;19945;-79
2023/07/16 02:05:09;;;;;;;;;;;;;;;19.75;72.02;99745.13;1086845;47;19939;-79
2023/07/16 02:06:13;;;;;;;;;;;;;;;19.68;72.61;99741.59;1087049;39;20980;-80
2023/07/16 02:07:14;;;;;;;;;;;;;;;19.73;72.67;99744.53;1086648;47;19990;-80
2023/07/16 02:08:17;;;;;;;;;;;;;;;19.76;72.10;99737.84;1086734;47;19945;-80
2023/07/16 02:09:18;;;;;;;;;;;;;;;19.86;72.56;99731.97;1086695;47;19939;-78
2023/07/16 02:10:21;;;;;;;;;;;;;;;19.83;72.37;99738.63;1090232;39;20709;-79
2023/07/16 02:11:22;;;;;;;;;;;;;;;19.82;72.49;99744.28;1086709;47;20750;-79
2023/07/16 02:12:25;;;;;;;;;;;;;;;19.78;72.47;99743.88;1086573;47;19947;-78
2023/07/16 02:13:27;;;;;;;;;;;;;;;19.75;72.89;99747.81;1086548;54;19951;-79
2023/07/16 02:14:30;;;;;;;;;;;;;;;19.75;72.96;99744.28;1086487;47;19995;-80
2023/07/16 02:15:31;;;;;;;;;;;;;;;19.71;73.16;99745.75;1086514;47;19938;-80
2023/07/16 02:16:37;;;;;;;;;;;;;;;19.66;73.63;99753.69;1086511;54;20022;-79
2023/07/16 02:17:38;;;;;;;;;;;;;;;19.69;73.67;99751.41;1086408;47;19938;-80
2023/07/16 02:18:41;;;;;;;;;;;;;;;19.62;74.15;99754.13;1086338;54;20039;-81
2023/07/16 02:19:42;;;;;;;;;;;;;;;19.64;73.94;99764.78;1088396;39;20259;-80
2023/07/16 02:20:47;;;;;;;;;;;;;;;19.59;74.40;99765.41;1086678;47;20053;-79
2023/07/16 02:21:47;;;;;;;;;;;;;;;19.59;74.28;99772.69;1086582;47;19969;-78
2023/07/16 02:22:51;;;;;;;;;;;;;;;19.56;74.49;99767.69;1086625;54;20576;-79
2023/07/16 02:23:51;;;;;;;;;;;;;;;19.69;74.31;99758.72;1086568;54;19951;-78
2023/07/16 02:24:55;;;;;;;;;;;;;;;19.67;74.44;99772.47;1086437;47;20634;-79
2023/07/16 02:25:55;;;;;;;;;;;;;;;19.61;74.78;99762.47;1086371;47;19950;-79
2023/07/16 02:26:59;;;;;;;;;;;;;;;19.64;74.76;99762.88;1086622;47;20616;-79
2023/07/16 02:28:00;;;;;;;;;;;;;;;19.63;74.77;99772.06;1086464;39;20484;-79
2023/07/16 02:29:04;;;;;;;;;;;;;;;19.62;74.92;99766.84;1086574;47;19950;-79
2023/07/16 02:30:06;;;;;;;;;;;;;;;19.63;75.05;99757.69;1086557;47;20806;-80
2023/07/16 02:31:09;;;;;;;;;;;;;;;19.68;75.09;99751.63;1086586;54;19943;-79
2023/07/16 02:32:13;;;;;;;;;;;;;;;19.69;75.03;99751.41;1086414;47;19939;-78
2023/07/16 02:33:16;;;;;;;;;;;;;;;19.73;74.58;99758.06;1085782;47;19946;-80
2023/07/16 02:34:17;;;;;;;;;;;;;;;19.81;74.27;99748.84;1082710;54;19959;-80
2023/07/16 02:35:20;;;;;;;;;;;;;;;19.80;74.51;99750.75;1082378;54;19950;-80
2023/07/16 02:36:22;;;;;;;;;;;;;;;19.78;74.77;99752.84;1082423;54;19957;-80
2023/07/16 02:37:26;;;;;;;;;;;;;;;19.72;75.13;99758.28;1082503;54;19973;-80
2023/07/16 02:38:27;;;;;;;;;;;;;;;19.68;74.88;99757.03;1082250;54;19946;-79
2023/07/16 02:39:31;;;;;;;;;;;;;;;19.71;75.23;99762.03;1082545;54;19946;-80
2023/07/16 02:40:32;;;;;;;;;;;;;;;19.75;74.77;99758.69;1082210;54;19950;-80
2023/07/16 02:41:35;;;;;;;;;;;;;;;19.83;74.60;99752.19;1082369;54;19954;-80
2023/07/16 02:42:36;;;;;;;;;;;;;;;19.86;74.66;99754.53;1082152;47;19951;-80
2023/07/16 02:43:40;;;;;;;;;;;;;;;19.84;74.94;99753.06;1082052;54;20038;-80
2023/07/16 02:44:44;;;;;;;;;;;;;;;19.82;74.56;99764.09;1082083;47;19946;-80
2023/07/16 02:45:47;;;;;;;;;;;;;;;19.86;74.59;99764.53;1082356;54;19954;-80
2023/07/16 02:46:48;;;;;;;;;;;;;;;19.90;74.67;99763.06;1083300;39;20850;-81
2023/07/16 02:47:54;;;;;;;;;;;;;;;19.92;74.56;99769.13;1082498;54;19947;-80
2023/07/16 02:48:55;;;;;;;;;;;;;;;19.92;74.80;99771.81;1082673;54;19951;-80
2023/07/16 02:49:58;;;;;;;;;;;;;;;19.95;74.30;99774.94;1082343;47;20049;-80
2023/07/16 02:50:59;;;;;;;;;;;;;;;19.91;74.06;99767.44;1082084;54;19946;-80
2023/07/16 02:52:02;;;;;;;;;;;;;;;19.85;74.55;99779.97;1082348;54;19951;-80
2023/07/16 02:53:04;;;;;;;;;;;;;;;19.91;74.47;99787.25;1083398;39;20781;-81
2023/07/16 02:54:07;;;;;;;;;;;;;;;19.97;74.33;99787.47;1082838;54;19955;-81
2023/07/16 02:55:08;;;;;;;;;;;;;;;20.00;74.03;99782.44;1083343;47;19947;-81
2023/07/16 02:56:12;;;;;;;;;;;;;;;19.84;74.19;99780.16;1082605;47;19966;-79
2023/07/16 02:57:12;;;;;;;;;;;;;;;19.94;73.99;99775.13;1082376;54;19971;-80
2023/07/16 02:58:16;;;;;;;;;;;;;;;19.96;73.86;99770.34;1082759;39;20481;-80
2023/07/16 02:59:17;;;;;;;;;;;;;;;19.99;73.68;99780.78;1082238;54;19950;-81
2023/07/16 03:00:21;;;;;;;;;;;;;;;19.98;74.01;99783.72;1082545;39;20807;-79
2023/07/16 03:01:21;;;;;;;;;;;;;;;19.99;73.74;99788.91;1082376;47;20046;-79
2023/07/16 03:02:25;;;;;;;;;;;;;;;20.06;73.65;99783.47;1082126;51;19974;-80
2023/07/16 03:03:28;;;;;;;;;;;;;;;20.01;73.47;99781.41;1082598;47;19970;-80
2023/07/16 03:04:32;;;;;;;;;;;;;;;20.02;73.42;99783.06;1082747;47;20041;-80
2023/07/16 03:05:33;;;;;;;;;;;;;;;19.99;73.37;99786.19;1082562;54;20496;-80
2023/07/16 03:06:36;;;;;;;;;;;;;;;19.97;73.31;99787.47;1083399;54;19946;-81
2023/07/16 03:07:37;;;;;;;;;;;;;;;19.88;73.74;99790.41;1083394;47;19951;-80
2023/07/16 03:08:40;;;;;;;;;;;;;;;19.90;73.69;99780.16;1083357;54;19974;-80
2023/07/16 03:09:41;;;;;;;;;;;;;;;19.85;73.70;99798.97;1084038;54;19950;-80
2023/07/16 03:10:44;;;;;;;;;;;;;;;19.87;73.40;99788.75;1083993;54;19950;-81
2023/07/16 03:11:46;;;;;;;;;;;;;;;19.86;73.67;99787.06;1083398;47;20077;-81
2023/07/16 03:12:46;;;;;;;;;;;;;;;19.87;73.39;99787.88;1083634;47;19953;-80
2023/07/16 03:13:50;;;;;;;;;;;;;;;19.73;73.92;99787.91;1084017;54;19970;-80
2023/07/16 03:14:53;;;;;;;;;;;;;;;19.74;73.68;99789.53;1083804;54;20029;-80
2023/07/16 03:15:57;;;;;;;;;;;;;;;19.70;74.02;99782.91;1083302;47;19986;-80
2023/07/16 03:16:57;;;;;;;;;;;;;;;19.66;73.90;99791.66;1083476;54;19977;-80
2023/07/16 03:18:01;;;;;;;;;;;;;;;19.67;74.23;99786.03;1083223;54;20010;-81
2023/07/16 03:19:05;;;;;;;;;;;;;;;19.71;73.81;99781.00;1083318;46;20504;-80
2023/07/16 03:20:10;;;;;;;;;;;;;;;19.68;73.75;99784.97;1083089;54;19950;-80
2023/07/16 03:21:10;;;;;;;;;;;;;;;19.71;73.84;99790.00;1083131;54;19946;-80
2023/07/16 03:22:14;;;;;;;;;;;;;;;19.70;74.05;99779.34;1083348;47;20069;-80
2023/07/16 03:23:15;;;;;;;;;;;;;;;19.72;73.81;99775.38;1083844;39;20389;-80
2023/07/16 03:24:18;;;;;;;;;;;;;;;19.79;73.97;99775.34;1083018;47;19951;-81
2023/07/16 03:25:19;;;;;;;;;;;;;;;19.83;73.97;99770.38;1083007;47;19950;-80
2023/07/16 03:26:22;;;;;;;;;;;;;;;19.86;73.92;99765.38;1082970;54;19983;-80
2023/07/16 03:27:24;;;;;;;;;;;;;;;19.83;73.53;99770.38;1083645;47;19950;-80
2023/07/16 03:28:33;;;;;;;;;;;;;;;19.83;73.63;99781.22;1085920;31;20525;-81
2023/07/16 03:29:38;;;;;;;;;;;;;;;19.90;73.80;99779.34;1083573;47;19977;-80
2023/07/16 03:30:40;;;;;;;;;;;;;;;19.83;73.32;99782.03;1083447;47;19994;-80
2023/07/16 03:31:43;;;;;;;;;;;;;;;19.82;73.38;99793.09;1083413;47;19974;-80
2023/07/16 03:32:45;;;;;;;;;;;;;;;19.79;73.37;99794.34;1083563;47;19951;-81
2023/07/16 03:33:49;;;;;;;;;;;;;;;19.71;74.01;99806.25;1083393;47;19974;-80
2023/07/16 03:34:53;;;;;;;;;;;;;;;19.71;74.29;99805.41;1083256;54;20011;-80
2023/07/16 03:35:56;;;;;;;;;;;;;;;19.64;74.25;99806.25;1083960;46;19954;-81
2023/07/16 03:36:59;;;;;;;;;;;;;;;19.73;74.43;99811.47;1084506;39;20713;-81
2023/07/16 03:38:00;;;;;;;;;;;;;;;19.72;74.27;99810.63;1083320;54;19977;-80
2023/07/16 03:39:05;;;;;;;;;;;;;;;19.70;74.04;99820.84;1083858;39;20417;-81
2023/07/16 03:40:15;;;;;;;;;;;;;;;19.61;74.58;99822.13;1083934;47;20009;-81
2023/07/16 03:41:19;;;;;;;;;;;;;;;19.62;74.74;99812.94;1083258;47;19951;-80
2023/07/16 03:42:22;;;;;;;;;;;;;;;19.55;74.40;99820.25;1083796;47;20000;-81
2023/07/16 03:43:23;;;;;;;;;;;;;;;19.59;74.28;99816.91;1083135;47;19957;-80
2023/07/16 03:44:28;;;;;;;;;;;;;;;19.56;74.75;99824.59;1083956;39;20365;-80
2023/07/16 03:45:29;;;;;;;;;;;;;;;19.48;74.72;99818.38;1083769;39;20452;-80
2023/07/16 03:46:32;;;;;;;;;;;;;;;19.57;74.51;99820.84;1082778;47;19951;-80
2023/07/16 03:47:33;;;;;;;;;;;;;;;19.48;74.73;99822.97;1083123;39;20446;-80
2023/07/16 03:48:34;;;;;;;;;;;;;;;19.49;74.51;99822.75;1083270;54;19946;-80
2023/07/16 03:49:37;;;;;;;;;;;;;;;19.51;74.44;99827.94;1082528;47;19966;-80
2023/07/16 03:50:41;;;;;;;;;;;;;;;19.53;74.32;99820.44;1083331;54;19947;-80
2023/07/16 03:51:44;;;;;;;;;;;;;;;19.60;74.12;99826.69;1083092;47;19946;-80
2023/07/16 03:52:45;;;;;;;;;;;;;;;19.52;74.48;99832.31;1083441;39;20370;-80
2023/07/16 03:53:46;;;;;;;;;;;;;;;19.46;74.44;99827.75;1082954;54;19962;-80
2023/07/16 03:54:49;;;;;;;;;;;;;;;19.40;74.96;99840.25;1083110;54;19957;-80
2023/07/16 03:55:50;;;;;;;;;;;;;;;19.45;74.59;99837.78;1082937;54;19954;-80
2023/07/16 03:56:54;;;;;;;;;;;;;;;19.46;74.26;99835.88;1083132;47;19950;-80
2023/07/16 03:57:54;;;;;;;;;;;;;;;19.42;74.43;99829.19;1082781;46;19950;-80
2023/07/16 03:58:58;;;;;;;;;;;;;;;19.43;74.17;99829.00;1082918;47;19962;-80
2023/07/16 03:59:59;;;;;;;;;;;;;;;19.52;73.73;99834.22;1082813;54;20020;-80
2023/07/16 04:01:02;;;;;;;;;;;;;;;19.51;73.94;99838.78;1082964;47;20884;-80
2023/07/16 04:02:03;;;;;;;;;;;;;;;19.53;74.49;99835.88;1083084;54;19970;-79
2023/07/16 04:03:07;;;;;;;;;;;;;;;19.51;73.99;99840.69;1083607;46;19950;-80
2023/07/16 04:04:08;;;;;;;;;;;;;;;19.49;74.64;99846.31;1083367;54;19970;-80
2023/07/16 04:05:12;;;;;;;;;;;;;;;19.49;74.02;99847.13;1084497;39;20519;-80
2023/07/16 04:06:16;;;;;;;;;;;;;;;19.54;74.07;99846.50;1083327;54;19947;-80
2023/07/16 04:07:20;;;;;;;;;;;;;;;19.58;74.11;99853.19;1082769;47;19950;-79
2023/07/16 04:08:21;;;;;;;;;;;;;;;19.59;74.25;99851.31;1082735;46;19951;-80
2023/07/16 04:09:24;;;;;;;;;;;;;;;19.55;74.24;99861.75;1082581;47;20438;-80
2023/07/16 04:10:25;;;;;;;;;;;;;;;19.60;74.25;99869.25;1082550;54;20933;-80
2023/07/16 04:11:28;;;;;;;;;;;;;;;19.68;74.10;99865.50;1083198;54;19947;-80
2023/07/16 04:12:29;;;;;;;;;;;;;;;19.61;73.97;99870.91;1082601;54;19991;-80
2023/07/16 04:13:32;;;;;;;;;;;;;;;19.63;74.11;99864.25;1082884;54;20933;-80
2023/07/16 04:14:33;;;;;;;;;;;;;;;19.64;73.69;99868.63;1082704;54;19974;-80
2023/07/16 04:15:36;;;;;;;;;;;;;;;19.49;74.11;99874.25;1083170;54;19953;-80
2023/07/16 04:16:37;;;;;;;;;;;;;;;19.53;74.17;99874.66;1082861;54;19975;-80
2023/07/16 04:17:40;;;;;;;;;;;;;;;19.40;74.24;99883.63;1082871;47;19982;-79
2023/07/16 04:18:41;;;;;;;;;;;;;;;19.44;74.30;99890.31;1083012;47;19946;-80
2023/07/16 04:19:44;;;;;;;;;;;;;;;19.42;74.62;99886.97;1082664;54;20002;-80
2023/07/16 04:20:45;;;;;;;;;;;;;;;19.40;74.45;99897.19;1082427;54;19996;-80
2023/07/16 04:21:51;;;;;;;;;;;;;;;19.49;74.04;99900.53;1082500;54;19957;-80
2023/07/16 04:22:51;;;;;;;;;;;;;;;19.44;74.39;99898.44;1082685;47;19991;-80
2023/07/16 04:23:55;;;;;;;;;;;;;;;19.44;74.13;99901.16;1082816;54;20002;-79
2023/07/16 04:24:56;;;;;;;;;;;;;;;19.41;74.35;99898.84;1081393;54;19946;-79
2023/07/16 04:25:59;;;;;;;;;;;;;;;19.41;74.54;99892.59;1081711;54;20003;-79
2023/07/16 04:27:00;;;;;;;;;;;;;;;19.44;74.38;99893.03;1081736;54;19946;-80
2023/07/16 04:28:03;;;;;;;;;;;;;;;19.41;74.40;99890.72;1081638;47;19954;-79
2023/07/16 04:29:04;;;;;;;;;;;;;;;19.46;74.00;99887.38;1082630;39;20376;-79
2023/07/16 04:30:08;;;;;;;;;;;;;;;19.43;74.27;99885.94;1081811;54;19947;-80
2023/07/16 04:31:09;;;;;;;;;;;;;;;19.47;74.07;99889.06;1081548;54;19971;-79
2023/07/16 04:32:13;;;;;;;;;;;;;;;19.49;73.60;99890.50;1080353;54;19965;-79
2023/07/16 04:33:13;;;;;;;;;;;;;;;19.53;73.78;99890.09;1081478;54;20083;-80
2023/07/16 04:34:17;;;;;;;;;;;;;;;19.47;73.65;99895.28;1081409;54;20773;-80
2023/07/16 04:35:18;;;;;;;;;;;;;;;19.44;73.60;99887.59;1081428;54;19947;-79
2023/07/16 04:36:21;;;;;;;;;;;;;;;19.55;73.40;99879.91;1081576;54;20044;-78
2023/07/16 04:37:24;;;;;;;;;;;;;;;19.57;73.34;99880.50;1082330;39;20253;-80
2023/07/16 04:38:28;;;;;;;;;;;;;;;19.49;72.96;99876.97;1082102;39;20740;-79
2023/07/16 04:39:29;;;;;;;;;;;;;;;19.43;73.27;99885.94;1081992;54;19947;-79
2023/07/16 04:40:29;;;;;;;;;;;;;;;19.46;73.17;99880.06;1081994;54;19951;-80
2023/07/16 04:41:33;;;;;;;;;;;;;;;19.49;72.67;99882.38;1082113;54;19946;-80
2023/07/16 04:42:34;;;;;;;;;;;;;;;19.43;72.41;99882.38;1082175;54;20453;-80
2023/07/16 04:43:37;;;;;;;;;;;;;;;19.43;72.71;99885.94;1082446;54;19953;-79
2023/07/16 04:44:38;;;;;;;;;;;;;;;19.41;72.60;99898.03;1082287;54;20445;-79
2023/07/16 04:45:41;;;;;;;;;;;;;;;19.42;72.39;99903.22;1082062;47;20053;-80
2023/07/16 04:46:42;;;;;;;;;;;;;;;19.54;72.46;99891.78;1082259;54;19950;-80
2023/07/16 04:47:45;;;;;;;;;;;;;;;19.57;72.42;99892.19;1082072;54;19950;-80
2023/07/16 04:48:46;;;;;;;;;;;;;;;19.41;72.45;99898.84;1082325;54;19998;-81
2023/07/16 04:51:28;;;;;;;;;;;;;;;19.40;72.40;99893.66;1086229;47;20552;-81
2023/07/16 04:52:31;;;;;;;;;;;;;;;19.36;71.88;99889.66;1085956;47;20002;-82
2023/07/16 04:53:35;;;;;;;;;;;;;;;19.47;71.73;99892.59;1086828;54;20528;-82
2023/07/16 04:54:36;;;;;;;;;;;;;;;19.41;71.73;99892.59;1087031;54;19942;-83
2023/07/16 04:55:40;;;;;;;;;;;;;;;19.37;71.58;99894.88;1086755;47;19931;-82
2023/07/16 04:56:40;;;;;;;;;;;;;;;19.33;71.98;99899.03;1086470;54;19946;-81
2023/07/16 04:57:44;;;;;;;;;;;;;;;19.44;71.43;99903.00;1086170;54;19947;-81
2023/07/16 04:58:48;;;;;;;;;;;;;;;19.48;71.43;99905.09;1086856;54;20920;-80
2023/07/16 04:59:51;;;;;;;;;;;;;;;19.39;71.28;99910.94;1086562;46;19950;-82
2023/07/16 05:00:52;;;;;;;;;;;;;;;19.37;71.82;99916.53;1086447;54;19938;-82
2023/07/16 05:01:55;;;;;;;;;;;;;;;19.39;70.98;99921.78;1086446;54;19951;-81
2023/07/16 05:02:56;;;;;;;;;;;;;;;19.26;71.49;99928.84;1086034;47;19957;-83
2023/07/16 05:03:59;;;;;;;;;;;;;;;19.36;71.45;99927.59;1086134;54;19967;-82
2023/07/16 05:05:00;;;;;;;;;;;;;;;19.35;71.49;99924.06;1086371;47;19981;-81
2023/07/16 05:06:03;;;;;;;;;;;;;;;19.29;71.60;99925.72;1087507;39;20436;-82
2023/07/16 05:07:04;;;;;;;;;;;;;;;19.31;71.64;99925.50;1087375;39;20480;-84
2023/07/16 05:08:14;;;;;;;;;;;;;;;19.31;71.74;99933.63;1098088;31;20386;-82
2023/07/16 05:09:23;;;;;;;;;;;;;;;19.33;71.60;99935.09;1087907;47;19963;-83
2023/07/16 05:10:26;;;;;;;;;;;;;;;19.22;71.69;99937.56;1087315;47;19923;-82
2023/07/16 05:11:27;;;;;;;;;;;;;;;19.37;71.51;99934.69;1088090;54;20737;-83
2023/07/16 05:12:30;;;;;;;;;;;;;;;19.40;71.06;99929.69;1088152;47;19990;-81
2023/07/16 05:13:31;;;;;;;;;;;;;;;19.35;71.22;99925.94;1087474;54;19957;-82
2023/07/16 05:14:45;;;;;;;;;;;;;;;19.40;71.09;99932.41;1087412;47;19942;-83
2023/07/16 05:15:45;;;;;;;;;;;;;;;19.34;71.28;99930.53;1087102;31;20610;-82
2023/07/16 05:16:49;;;;;;;;;;;;;;;19.32;71.43;99938.03;1085979;54;19939;-81
2023/07/16 05:17:49;;;;;;;;;;;;;;;19.36;71.18;99933.03;1085987;47;19947;-82
2023/07/16 05:18:53;;;;;;;;;;;;;;;19.41;71.39;99938.69;1086081;47;20633;-82
2023/07/16 05:19:53;;;;;;;;;;;;;;;19.37;71.27;99938.22;1086018;46;19947;-82
2023/07/16 05:20:57;;;;;;;;;;;;;;;19.32;71.27;99938.84;1086405;54;19973;-83
2023/07/16 05:21:57;;;;;;;;;;;;;;;19.31;71.34;99930.94;1088475;39;20666;-81
2023/07/16 05:23:01;;;;;;;;;;;;;;;19.42;70.78;99932.19;1086085;47;19955;-82
2023/07/16 05:24:04;;;;;;;;;;;;;;;19.38;71.01;99929.06;1086350;54;20034;-81
2023/07/16 05:25:10;;;;;;;;;;;;;;;19.39;71.31;99938.03;1086350;39;20429;-81
2023/07/16 05:26:11;;;;;;;;;;;;;;;19.41;71.17;99936.78;1087232;39;20365;-81
2023/07/16 05:27:23;;;;;;;;;;;;;;;19.36;70.93;99933.88;1086402;47;19976;-81
2023/07/16 05:28:24;;;;;;;;;;;;;;;19.38;71.14;99942.63;1086076;54;19975;-81
2023/07/16 05:29:27;;;;;;;;;;;;;;;19.40;70.92;99945.97;1086230;47;19955;-81